createdAt,value
2023-02-11T00:00:41.562Z,100.00
2023-02-11T00:03:46.337Z,100.00
2023-02-11T00:06:51.108Z,100.00
2023-02-11T00:09:55.911Z,100.00
2023-02-11T00:13:00.561Z,100.00
2023-02-11T00:16:10.635Z,100.00
2023-02-11T00:19:15.407Z,100.00
2023-02-11T00:22:20.526Z,100.00
2023-02-11T00:25:25.735Z,100.00
2023-02-11T00:28:30.423Z,100.00
2023-02-11T00:31:35.724Z,100.00
2023-02-11T00:34:43.129Z,100.00
2023-02-11T00:37:47.850Z,100.00
2023-02-11T00:40:52.659Z,100.00
2023-02-11T00:43:57.530Z,100.00
2023-02-11T00:47:02.186Z,100.00
2023-02-11T00:50:07.586Z,100.00
2023-02-11T00:53:12.472Z,100.00
2023-02-11T00:56:17.915Z,100.00
2023-02-11T00:59:22.800Z,100.00
2023-02-11T01:02:27.410Z,100.00
2023-02-11T01:05:32.219Z,100.00
2023-02-11T01:08:37.323Z,100.00
2023-02-11T01:11:41.826Z,100.00
2023-02-11T01:14:46.672Z,100.00
2023-02-11T01:17:51.606Z,100.00
2023-02-11T01:20:58.010Z,100.00
2023-02-11T01:24:02.713Z,100.00
2023-02-11T01:27:07.570Z,100.00
2023-02-11T01:30:13.894Z,100.00
2023-02-11T01:33:19.058Z,100.00
2023-02-11T01:36:23.957Z,100.00
2023-02-11T01:39:28.613Z,100.00
2023-02-11T01:42:33.866Z,100.00
2023-02-11T01:45:44.800Z,100.00
2023-02-11T01:49:06.279Z,100.00
2023-02-11T01:52:19.055Z,100.00
2023-02-11T01:55:42.175Z,100.00
2023-02-11T01:58:48.773Z,100.00
2023-02-11T02:01:58.736Z,100.00
2023-02-11T02:05:36.890Z,100.00
2023-02-11T02:08:51.246Z,100.00
2023-02-11T02:11:56.029Z,100.00
2023-02-11T02:15:22.007Z,100.00
2023-02-11T02:18:38.995Z,100.00
2023-02-11T02:22:17.618Z,100.00
2023-02-11T02:25:48.164Z,100.00
2023-02-11T02:29:06.917Z,100.00
2023-02-11T02:32:43.559Z,100.00
2023-02-11T02:35:58.324Z,100.00
2023-02-11T02:39:12.015Z,100.00
2023-02-11T02:42:18.375Z,100.00
2023-02-11T02:45:23.003Z,100.00
2023-02-11T02:48:30.952Z,100.00
2023-02-11T02:51:38.423Z,100.00
2023-02-11T02:55:11.481Z,100.00
2023-02-11T02:58:47.023Z,100.00
2023-02-11T03:02:03.962Z,100.00
2023-02-11T03:05:16.170Z,100.00
2023-02-11T03:08:41.120Z,100.00
2023-02-11T03:11:45.978Z,100.00
2023-02-11T03:14:52.386Z,100.00
2023-02-11T03:18:02.120Z,100.00
2023-02-11T03:21:08.479Z,100.00
2023-02-11T03:24:20.117Z,100.00
2023-02-11T03:27:32.934Z,100.00
2023-02-11T03:30:44.388Z,100.00
2023-02-11T03:33:59.616Z,100.00
2023-02-11T03:37:18.345Z,100.00
2023-02-11T03:40:26.922Z,100.00
2023-02-11T03:43:35.598Z,100.00
2023-02-11T03:46:44.878Z,100.00
2023-02-11T03:49:53.093Z,100.00
2023-02-11T03:53:00.560Z,100.00
2023-02-11T03:56:09.037Z,100.00
2023-02-11T03:59:13.710Z,100.00
2023-02-11T04:02:19.088Z,100.00
2023-02-11T04:05:23.976Z,100.00
2023-02-11T04:08:28.606Z,100.00
2023-02-11T04:11:33.213Z,100.00
2023-02-11T04:14:38.084Z,100.00
2023-02-11T04:17:43.030Z,100.00
2023-02-11T04:20:48.156Z,100.00
2023-02-11T04:23:52.794Z,100.00
2023-02-11T04:26:57.594Z,100.00
2023-02-11T04:30:02.589Z,100.00
2023-02-11T04:33:07.318Z,100.00
2023-02-11T04:36:12.873Z,100.00
2023-02-11T04:39:17.949Z,100.00
2023-02-11T04:42:24.023Z,100.00
2023-02-11T04:45:28.701Z,100.00
2023-02-11T04:48:34.913Z,100.00
2023-02-11T04:51:39.719Z,100.00
2023-02-11T04:54:44.470Z,100.00
2023-02-11T04:57:49.211Z,100.00
2023-02-11T05:00:54.074Z,100.00
2023-02-11T05:03:58.790Z,100.00
2023-02-11T05:07:03.601Z,100.00
2023-02-11T05:10:08.450Z,100.00
2023-02-11T05:13:13.176Z,100.00
2023-02-11T05:16:18.569Z,100.00
2023-02-11T05:19:23.415Z,100.00
2023-02-11T05:22:28.032Z,100.00
2023-02-11T05:25:33.148Z,100.00
2023-02-11T05:28:38.133Z,100.00
2023-02-11T05:31:42.804Z,100.00
2023-02-11T05:34:47.439Z,100.00
2023-02-11T05:37:52.149Z,100.00
2023-02-11T05:40:57.105Z,100.00
2023-02-11T05:44:01.842Z,100.00
2023-02-11T05:47:08.932Z,100.00
2023-02-11T05:50:13.418Z,100.00
2023-02-11T05:53:21.571Z,100.00
2023-02-11T05:56:49.165Z,100.00
2023-02-11T05:59:53.769Z,100.00
2023-02-11T06:02:58.427Z,100.00
2023-02-11T06:06:03.262Z,100.00
2023-02-11T06:09:09.033Z,100.00
2023-02-11T06:12:13.772Z,100.00
2023-02-11T06:15:18.463Z,100.00
2023-02-11T06:18:23.329Z,100.00
2023-02-11T06:21:42.436Z,100.00
2023-02-11T06:25:00.967Z,100.00
2023-02-11T06:28:06.805Z,100.00
2023-02-11T06:31:11.908Z,100.00
2023-02-11T06:34:16.766Z,100.00
2023-02-11T06:37:22.240Z,100.00
2023-02-11T06:40:27.298Z,100.00
2023-02-11T06:43:33.516Z,100.00
2023-02-11T06:46:41.282Z,100.00
2023-02-11T06:49:45.978Z,100.00
2023-02-11T06:52:50.547Z,100.00
2023-02-11T06:55:55.186Z,100.00
2023-02-11T06:59:00.423Z,100.00
2023-02-11T07:02:05.060Z,100.00
2023-02-11T07:05:09.947Z,100.00
2023-02-11T07:08:14.615Z,100.00
2023-02-11T07:11:24.217Z,100.00
2023-02-11T07:14:28.899Z,100.00
2023-02-11T07:17:34.930Z,100.00
2023-02-11T07:20:39.437Z,100.00
2023-02-11T07:23:43.971Z,100.00
2023-02-11T07:26:48.827Z,100.00
2023-02-11T07:29:53.653Z,100.00
2023-02-11T07:32:58.198Z,100.00
2023-02-11T07:36:04.897Z,100.00
2023-02-11T07:39:09.538Z,100.00
2023-02-11T07:42:14.270Z,100.00
2023-02-11T07:45:19.364Z,100.00
2023-02-11T07:48:24.636Z,100.00
2023-02-11T07:51:30.857Z,100.00
2023-02-11T07:54:35.678Z,100.00
2023-02-11T07:57:41.232Z,100.00
2023-02-11T08:00:46.220Z,100.00
2023-02-11T08:03:52.197Z,100.00
2023-02-11T08:06:59.071Z,100.00
2023-02-11T08:10:04.076Z,100.00
2023-02-11T08:13:08.571Z,100.00
2023-02-11T08:16:28.258Z,100.00
2023-02-11T08:19:35.175Z,100.00
2023-02-11T08:22:39.879Z,100.00
2023-02-11T08:25:44.449Z,100.00
2023-02-11T08:28:50.728Z,100.00
2023-02-11T08:31:55.257Z,100.00
2023-02-11T08:34:59.810Z,100.00
2023-02-11T08:38:04.335Z,100.00
2023-02-11T08:41:09.098Z,100.00
2023-02-11T08:44:13.794Z,100.00
2023-02-11T08:47:18.350Z,100.00
2023-02-11T08:50:22.978Z,100.00
2023-02-11T08:53:27.502Z,100.00
2023-02-11T08:56:33.252Z,100.00
2023-02-11T08:59:39.997Z,100.00
2023-02-11T09:02:44.575Z,100.00
2023-02-11T09:05:53.223Z,100.00
2023-02-11T09:08:58.578Z,100.00
2023-02-11T09:12:03.258Z,100.00
2023-02-11T09:15:08.514Z,100.00
2023-02-11T09:18:13.431Z,100.00
2023-02-11T09:21:19.125Z,100.00
2023-02-11T09:24:23.696Z,100.00
2023-02-11T09:27:28.282Z,100.00
2023-02-11T09:30:33.376Z,100.00
2023-02-11T09:33:39.326Z,100.00
2023-02-11T09:36:44.008Z,100.00
2023-02-11T09:39:48.642Z,100.00
2023-02-11T09:43:14.322Z,100.00
2023-02-11T09:46:21.210Z,100.00
2023-02-11T09:49:35.066Z,100.00
2023-02-11T09:52:54.945Z,100.00
2023-02-11T09:56:02.263Z,100.00
2023-02-11T09:59:13.739Z,100.00
2023-02-11T10:02:29.870Z,100.00
2023-02-11T10:05:46.513Z,100.00
2023-02-11T10:08:54.290Z,100.00
2023-02-11T10:11:59.157Z,100.00
2023-02-11T10:15:15.623Z,100.00
2023-02-11T10:18:38.302Z,100.00
2023-02-11T10:22:00.214Z,100.00
2023-02-11T10:25:30.610Z,100.00
2023-02-11T10:28:37.052Z,100.00
2023-02-11T10:31:45.040Z,100.00
2023-02-11T10:34:50.597Z,100.00
2023-02-11T10:37:56.093Z,100.00
2023-02-11T10:41:00.833Z,100.00
2023-02-11T10:44:07.401Z,100.00
2023-02-11T10:47:21.132Z,100.00
2023-02-11T10:50:28.613Z,100.00
2023-02-11T10:53:34.955Z,100.00
2023-02-11T10:56:47.560Z,100.00
2023-02-11T10:59:58.294Z,100.00
2023-02-11T11:03:14.623Z,100.00
2023-02-11T11:06:31.615Z,96.27
2023-02-11T11:09:48.458Z,95.22
2023-02-11T11:12:53.093Z,97.82
2023-02-11T11:16:18.249Z,97.97
2023-02-11T11:19:26.020Z,91.47
2023-02-11T11:22:30.914Z,93.85
2023-02-11T11:25:39.534Z,92.73
2023-02-11T11:28:47.000Z,91.29
2023-02-11T11:31:56.840Z,88.29
2023-02-11T11:35:07.529Z,87.76
2023-02-11T11:38:14.865Z,92.16
2023-02-11T11:41:26.128Z,84.96
2023-02-11T11:44:33.725Z,90.62
2023-02-11T11:48:16.250Z,87.37
2023-02-11T11:51:21.610Z,86.57
2023-02-11T11:54:28.214Z,90.05
2023-02-11T11:57:37.274Z,92.58
2023-02-11T12:01:17.054Z,87.18
2023-02-11T12:04:30.169Z,91.87
2023-02-11T12:07:37.634Z,88.14
2023-02-11T12:11:09.311Z,86.24
2023-02-11T12:14:22.805Z,81.49
2023-02-11T12:17:47.539Z,82.25
2023-02-11T12:21:01.025Z,81.11
2023-02-11T12:24:43.217Z,82.81
2023-02-11T12:27:54.998Z,79.67
2023-02-11T12:31:30.354Z,83.89
2023-02-11T12:34:35.586Z,86.22
2023-02-11T12:37:45.848Z,88.10
2023-02-11T12:40:56.423Z,86.54
2023-02-11T12:44:01.074Z,92.88
2023-02-11T12:47:27.091Z,86.81
2023-02-11T12:50:40.629Z,90.99
2023-02-11T12:54:19.571Z,91.24
2023-02-11T12:57:31.116Z,88.93
2023-02-11T13:00:51.818Z,89.25
2023-02-11T13:04:14.180Z,87.87
2023-02-11T13:07:28.761Z,91.25
2023-02-11T13:10:36.660Z,87.57
2023-02-11T13:14:05.978Z,86.10
2023-02-11T13:17:44.387Z,87.81
2023-02-11T13:21:02.522Z,86.60
2023-02-11T13:24:30.341Z,84.27
2023-02-11T13:27:44.206Z,83.05
2023-02-11T13:30:57.353Z,84.42
2023-02-11T13:34:03.814Z,89.69
2023-02-11T13:37:38.822Z,90.65
2023-02-11T13:40:44.320Z,86.22
2023-02-11T13:44:23.779Z,85.70
2023-02-11T13:47:33.835Z,84.05
2023-02-11T13:50:46.618Z,85.02
2023-02-11T13:53:57.142Z,79.95
2023-02-11T13:57:19.762Z,88.49
2023-02-11T14:00:36.516Z,85.13
2023-02-11T14:04:38.327Z,87.41
2023-02-11T14:08:30.583Z,87.06
2023-02-11T14:11:36.477Z,87.15
2023-02-11T14:15:04.812Z,84.96
2023-02-11T14:18:44.791Z,87.52
2023-02-11T14:21:50.039Z,89.94
2023-02-11T14:24:58.365Z,89.10
2023-02-11T14:28:24.105Z,88.40
2023-02-11T14:31:45.528Z,88.83
2023-02-11T14:34:55.945Z,91.71
2023-02-11T14:38:41.456Z,90.46
2023-02-11T14:41:48.782Z,97.78
2023-02-11T14:44:57.529Z,96.17
2023-02-11T14:48:13.442Z,100.00
2023-02-11T14:51:31.697Z,97.90
2023-02-11T14:54:36.538Z,94.31
2023-02-11T14:57:44.660Z,93.30
2023-02-11T15:01:01.283Z,95.24
2023-02-11T15:04:22.474Z,98.04
2023-02-11T15:07:27.868Z,100.00
2023-02-11T15:10:37.921Z,100.00
2023-02-11T15:13:50.549Z,100.00
2023-02-11T15:16:59.502Z,100.00
2023-02-11T15:20:05.560Z,100.00
2023-02-11T15:23:21.474Z,100.00
2023-02-11T15:26:26.941Z,100.00
2023-02-11T15:29:39.285Z,100.00
2023-02-11T15:32:45.586Z,100.00
2023-02-11T15:35:52.889Z,100.00
2023-02-11T15:39:18.450Z,100.00
2023-02-11T15:42:26.492Z,100.00
2023-02-11T15:45:34.727Z,100.00
2023-02-11T15:48:48.670Z,100.00
2023-02-11T15:51:57.090Z,100.00
2023-02-11T15:55:03.069Z,100.00
2023-02-11T15:58:10.803Z,100.00
2023-02-11T16:01:16.500Z,100.00
2023-02-11T16:04:25.077Z,100.00
2023-02-11T16:07:47.468Z,100.00
2023-02-11T16:11:03.681Z,100.00
2023-02-11T16:14:31.313Z,100.00
2023-02-11T16:17:35.960Z,100.00
2023-02-11T16:20:40.981Z,100.00
2023-02-11T16:23:58.124Z,100.00
2023-02-11T16:27:07.143Z,100.00
2023-02-11T16:30:28.146Z,100.00
2023-02-11T16:33:33.398Z,100.00
2023-02-11T16:36:38.517Z,100.00
2023-02-11T16:39:44.682Z,100.00
2023-02-11T16:42:49.840Z,100.00
2023-02-11T16:45:58.854Z,100.00
2023-02-11T16:49:10.746Z,100.00
2023-02-11T16:52:16.682Z,100.00
2023-02-11T16:55:22.301Z,100.00
2023-02-11T16:58:26.994Z,100.00
2023-02-11T17:01:32.537Z,100.00
2023-02-11T17:04:37.640Z,100.00
2023-02-11T17:07:42.311Z,100.00
2023-02-11T17:10:47.244Z,100.00
2023-02-11T17:13:51.952Z,100.00
2023-02-11T17:16:56.852Z,100.00
2023-02-11T17:20:01.662Z,100.00
2023-02-11T17:23:06.358Z,100.00
2023-02-11T17:26:10.926Z,100.00
2023-02-11T17:29:18.953Z,100.00
2023-02-11T17:32:23.532Z,100.00
2023-02-11T17:35:28.122Z,100.00
2023-02-11T17:38:33.446Z,100.00
2023-02-11T17:41:39.442Z,100.00
2023-02-11T17:44:44.438Z,100.00
2023-02-11T17:47:49.451Z,100.00
2023-02-11T17:50:54.029Z,100.00
2023-02-11T17:54:01.205Z,100.00
2023-02-11T17:57:06.024Z,100.00
2023-02-11T18:00:11.300Z,100.00
2023-02-11T18:03:18.473Z,100.00
2023-02-11T18:06:23.055Z,100.00
2023-02-11T18:09:27.880Z,100.00
2023-02-11T18:12:32.375Z,100.00
2023-02-11T18:15:36.966Z,100.00
2023-02-11T18:18:42.525Z,100.00
2023-02-11T18:21:50.475Z,100.00
2023-02-11T18:24:55.426Z,100.00
2023-02-11T18:28:00.128Z,100.00
2023-02-11T18:31:06.095Z,100.00
2023-02-11T18:34:11.431Z,100.00
2023-02-11T18:37:16.325Z,100.00
2023-02-11T18:40:20.917Z,100.00
2023-02-11T18:43:25.560Z,100.00
2023-02-11T18:46:30.587Z,100.00
2023-02-11T18:49:36.157Z,100.00
2023-02-11T18:52:40.830Z,100.00
2023-02-11T18:55:47.009Z,100.00
2023-02-11T18:58:51.982Z,100.00
2023-02-11T19:01:56.688Z,100.00
2023-02-11T19:05:01.494Z,98.46
2023-02-11T19:08:06.266Z,93.49
2023-02-11T19:11:11.166Z,96.72
2023-02-11T19:14:24.483Z,96.70
2023-02-11T19:17:28.951Z,100.00
2023-02-11T19:20:33.519Z,100.00
2023-02-11T19:23:38.673Z,100.00
2023-02-11T19:26:43.267Z,100.00
2023-02-11T19:29:47.835Z,100.00
2023-02-11T19:32:53.190Z,100.00
2023-02-11T19:36:09.603Z,100.00
2023-02-11T19:39:14.437Z,100.00
2023-02-11T19:42:18.981Z,100.00
2023-02-11T19:45:23.689Z,100.00
2023-02-11T19:48:28.371Z,100.00
2023-02-11T19:51:35.573Z,100.00
2023-02-11T19:54:40.139Z,100.00
2023-02-11T19:57:45.015Z,100.00
2023-02-11T20:00:49.601Z,100.00
2023-02-11T20:03:55.340Z,100.00
2023-02-11T20:07:00.038Z,100.00
2023-02-11T20:10:05.277Z,100.00
2023-02-11T20:13:10.444Z,100.00
2023-02-11T20:16:21.150Z,100.00
2023-02-11T20:19:25.765Z,100.00
2023-02-11T20:22:30.254Z,100.00
2023-02-11T20:25:38.283Z,100.00
2023-02-11T20:28:43.248Z,100.00
2023-02-11T20:31:49.695Z,100.00
2023-02-11T20:34:54.442Z,100.00
2023-02-11T20:38:00.420Z,100.00
2023-02-11T20:41:13.886Z,100.00
2023-02-11T20:44:18.821Z,100.00
2023-02-11T20:47:23.507Z,100.00
2023-02-11T20:50:28.006Z,100.00
2023-02-11T20:53:35.476Z,100.00
2023-02-11T20:56:39.997Z,100.00
2023-02-11T20:59:44.607Z,100.00
2023-02-11T21:02:52.809Z,100.00
2023-02-11T21:06:00.746Z,100.00
2023-02-11T21:09:08.188Z,100.00
2023-02-11T21:12:13.070Z,100.00
2023-02-11T21:15:17.777Z,100.00
2023-02-11T21:18:23.426Z,100.00
2023-02-11T21:21:27.964Z,100.00
2023-02-11T21:24:32.782Z,100.00
2023-02-11T21:27:37.570Z,100.00
2023-02-11T21:30:42.421Z,100.00
2023-02-11T21:33:48.222Z,100.00
2023-02-11T21:36:52.819Z,100.00
2023-02-11T21:39:57.422Z,100.00
2023-02-11T21:43:01.930Z,100.00
2023-02-11T21:46:13.197Z,100.00
2023-02-11T21:49:19.882Z,100.00
2023-02-11T21:52:24.620Z,100.00
2023-02-11T21:55:29.141Z,100.00
2023-02-11T21:58:34.737Z,100.00
2023-02-11T22:01:39.745Z,100.00
2023-02-11T22:04:44.530Z,100.00
2023-02-11T22:07:49.146Z,100.00
2023-02-11T22:10:53.815Z,100.00
2023-02-11T22:13:59.318Z,100.00
2023-02-11T22:17:04.779Z,100.00
2023-02-11T22:20:10.432Z,100.00
2023-02-11T22:23:14.930Z,100.00
2023-02-11T22:26:22.292Z,100.00
2023-02-11T22:29:26.842Z,100.00
2023-02-11T22:32:31.667Z,100.00
2023-02-11T22:35:36.172Z,100.00
2023-02-11T22:38:40.751Z,100.00
2023-02-11T22:41:46.726Z,100.00
2023-02-11T22:44:51.337Z,100.00
2023-02-11T22:47:55.907Z,100.00
2023-02-11T22:51:08.781Z,100.00
2023-02-11T22:54:16.482Z,100.00
2023-02-11T22:57:21.052Z,100.00
2023-02-11T23:03:53.751Z,100.00
2023-02-11T23:06:58.380Z,100.00
2023-02-11T23:10:02.925Z,100.00
2023-02-11T23:13:07.745Z,100.00
2023-02-11T23:16:15.181Z,100.00
2023-02-11T23:19:19.907Z,100.00
2023-02-11T23:22:24.546Z,100.00
2023-02-11T23:25:29.716Z,100.00
2023-02-11T23:28:34.242Z,100.00
2023-02-11T23:31:40.645Z,100.00
2023-02-11T23:34:45.336Z,100.00
2023-02-11T23:37:50.427Z,100.00
2023-02-11T23:40:55.028Z,100.00
2023-02-11T23:43:59.648Z,100.00
2023-02-11T23:47:04.469Z,100.00
2023-02-11T23:50:10.284Z,100.00
2023-02-11T23:53:15.496Z,100.00
2023-02-11T23:56:25.770Z,100.00
2023-02-11T23:59:30.356Z,100.00
